Terminal Aerodrome Forecast
Issued by NWS Wilmington, NC

Current Version | Previous Version | Text Only | Print | Product List | Glossary On
Versions: 1 2 3 4 5 6 7 8 9 10 11 12 13 14 15 16 17
125
FTUS42 KILM 082320
TAFLBT
TAF
KLBT 082320Z 0900/0924 21011G18KT P6SM FEW060 SCT150
      TEMPO 0900/0901 27013G20KT 4SM -SHRA BKN040
     FM090100 26010KT P6SM BKN050
     FM090500 27011G18KT P6SM SCT100 BKN250
     FM091500 27015G22KT P6SM OVC050=

USA.gov is the U.S. government's official web portal to all federal, state and local government web resources and services.